sensor_id;sensor_type;location;lat;lon;timestamp;P1;durP1;ratioP1;P2;durP2;ratioP2
3004;SDS011;1512;51.486;6.610;2023-07-30T00:00:30;3.87;;;3.40;;
3004;SDS011;1512;51.486;6.610;2023-07-30T00:04:39;5.57;;;4.03;;
3004;SDS011;1512;51.486;6.610;2023-07-30T00:08:47;5.13;;;4.07;;
3004;SDS011;1512;51.486;6.610;2023-07-30T00:12:56;10.00;;;4.07;;
3004;SDS011;1512;51.486;6.610;2023-07-30T00:17:05;4.47;;;3.70;;
3004;SDS011;1512;51.486;6.610;2023-07-30T00:21:13;4.00;;;3.60;;
3004;SDS011;1512;51.486;6.610;2023-07-30T00:25:22;4.40;;;3.50;;
3004;SDS011;1512;51.486;6.610;2023-07-30T00:29:33;4.10;;;2.97;;
3004;SDS011;1512;51.486;6.610;2023-07-30T00:33:41;4.40;;;3.30;;
3004;SDS011;1512;51.486;6.610;2023-07-30T00:37:50;3.37;;;2.90;;
3004;SDS011;1512;51.486;6.610;2023-07-30T00:41:59;6.13;;;4.10;;
3004;SDS011;1512;51.486;6.610;2023-07-30T00:46:07;5.30;;;3.50;;
3004;SDS011;1512;51.486;6.610;2023-07-30T00:50:16;4.27;;;3.23;;
3004;SDS011;1512;51.486;6.610;2023-07-30T00:54:25;4.23;;;3.03;;
3004;SDS011;1512;51.486;6.610;2023-07-30T00:58:34;4.60;;;3.10;;
3004;SDS011;1512;51.486;6.610;2023-07-30T01:02:44;3.73;;;3.30;;
3004;SDS011;1512;51.486;6.610;2023-07-30T01:06:52;4.73;;;3.33;;
3004;SDS011;1512;51.486;6.610;2023-07-30T01:11:02;4.90;;;3.90;;
3004;SDS011;1512;51.486;6.610;2023-07-30T01:15:12;4.87;;;4.13;;
3004;SDS011;1512;51.486;6.610;2023-07-30T01:19:20;3.97;;;3.57;;
3004;SDS011;1512;51.486;6.610;2023-07-30T01:23:29;5.87;;;4.03;;
3004;SDS011;1512;51.486;6.610;2023-07-30T01:27:39;4.10;;;3.15;;
3004;SDS011;1512;51.486;6.610;2023-07-30T01:31:52;3.73;;;3.33;;
3004;SDS011;1512;51.486;6.610;2023-07-30T01:36:01;11.80;;;3.87;;
3004;SDS011;1512;51.486;6.610;2023-07-30T01:40:11;5.60;;;3.27;;
3004;SDS011;1512;51.486;6.610;2023-07-30T01:44:21;4.03;;;3.30;;
3004;SDS011;1512;51.486;6.610;2023-07-30T01:48:29;4.50;;;3.93;;
3004;SDS011;1512;51.486;6.610;2023-07-30T01:52:38;6.90;;;4.40;;
3004;SDS011;1512;51.486;6.610;2023-07-30T01:56:47;3.87;;;3.50;;
3004;SDS011;1512;51.486;6.610;2023-07-30T02:00:56;3.67;;;3.25;;
3004;SDS011;1512;51.486;6.610;2023-07-30T02:05:04;6.80;;;3.83;;
3004;SDS011;1512;51.486;6.610;2023-07-30T02:09:13;5.00;;;3.47;;
3004;SDS011;1512;51.486;6.610;2023-07-30T02:13:22;6.63;;;4.07;;
3004;SDS011;1512;51.486;6.610;2023-07-30T02:17:31;4.37;;;3.97;;
3004;SDS011;1512;51.486;6.610;2023-07-30T02:26:08;6.93;;;3.53;;
3004;SDS011;1512;51.486;6.610;2023-07-30T02:30:16;5.63;;;3.63;;
3004;SDS011;1512;51.486;6.610;2023-07-30T02:34:25;3.53;;;3.23;;
3004;SDS011;1512;51.486;6.610;2023-07-30T02:38:33;4.40;;;3.97;;
3004;SDS011;1512;51.486;6.610;2023-07-30T02:42:42;6.70;;;4.20;;
3004;SDS011;1512;51.486;6.610;2023-07-30T02:46:51;5.30;;;4.00;;
3004;SDS011;1512;51.486;6.610;2023-07-30T02:50:59;6.27;;;4.20;;
3004;SDS011;1512;51.486;6.610;2023-07-30T02:55:08;4.20;;;3.80;;
3004;SDS011;1512;51.486;6.610;2023-07-30T02:59:17;8.57;;;4.40;;
3004;SDS011;1512;51.486;6.610;2023-07-30T03:03:25;5.30;;;4.13;;
3004;SDS011;1512;51.486;6.610;2023-07-30T03:07:34;5.90;;;4.10;;
3004;SDS011;1512;51.486;6.610;2023-07-30T03:11:43;6.87;;;4.03;;
3004;SDS011;1512;51.486;6.610;2023-07-30T03:15:52;7.30;;;3.77;;
3004;SDS011;1512;51.486;6.610;2023-07-30T03:20:01;3.70;;;3.30;;
3004;SDS011;1512;51.486;6.610;2023-07-30T03:24:11;4.33;;;3.43;;
3004;SDS011;1512;51.486;6.610;2023-07-30T03:28:19;5.10;;;3.20;;
3004;SDS011;1512;51.486;6.610;2023-07-30T03:32:28;6.27;;;3.53;;
3004;SDS011;1512;51.486;6.610;2023-07-30T03:36:37;5.00;;;3.72;;
3004;SDS011;1512;51.486;6.610;2023-07-30T03:40:45;4.80;;;4.00;;
3004;SDS011;1512;51.486;6.610;2023-07-30T03:44:54;5.23;;;4.60;;
3004;SDS011;1512;51.486;6.610;2023-07-30T03:49:03;3.90;;;3.50;;
3004;SDS011;1512;51.486;6.610;2023-07-30T03:53:13;5.10;;;4.07;;
3004;SDS011;1512;51.486;6.610;2023-07-30T03:57:21;7.17;;;3.50;;
3004;SDS011;1512;51.486;6.610;2023-07-30T04:01:30;3.93;;;3.47;;
3004;SDS011;1512;51.486;6.610;2023-07-30T04:05:39;4.87;;;4.37;;
3004;SDS011;1512;51.486;6.610;2023-07-30T04:09:47;7.20;;;3.67;;
3004;SDS011;1512;51.486;6.610;2023-07-30T04:13:56;4.53;;;3.10;;
3004;SDS011;1512;51.486;6.610;2023-07-30T04:18:04;7.07;;;3.17;;
3004;SDS011;1512;51.486;6.610;2023-07-30T04:22:13;4.73;;;3.77;;
3004;SDS011;1512;51.486;6.610;2023-07-30T04:26:22;10.90;;;4.20;;
3004;SDS011;1512;51.486;6.610;2023-07-30T04:30:32;12.97;;;5.20;;
3004;SDS011;1512;51.486;6.610;2023-07-30T04:34:40;6.90;;;4.70;;
3004;SDS011;1512;51.486;6.610;2023-07-30T04:38:49;8.60;;;4.57;;
3004;SDS011;1512;51.486;6.610;2023-07-30T04:42:58;9.43;;;3.93;;
3004;SDS011;1512;51.486;6.610;2023-07-30T04:47:06;14.03;;;4.13;;
3004;SDS011;1512;51.486;6.610;2023-07-30T04:51:15;9.47;;;4.43;;
3004;SDS011;1512;51.486;6.610;2023-07-30T04:55:24;6.30;;;5.10;;
3004;SDS011;1512;51.486;6.610;2023-07-30T04:59:33;16.23;;;6.00;;
3004;SDS011;1512;51.486;6.610;2023-07-30T05:03:41;7.13;;;5.03;;
3004;SDS011;1512;51.486;6.610;2023-07-30T05:07:50;12.37;;;6.10;;
3004;SDS011;1512;51.486;6.610;2023-07-30T05:11:59;7.90;;;6.60;;
3004;SDS011;1512;51.486;6.610;2023-07-30T05:16:07;8.67;;;4.70;;
3004;SDS011;1512;51.486;6.610;2023-07-30T05:20:17;16.30;;;5.97;;
3004;SDS011;1512;51.486;6.610;2023-07-30T05:24:25;13.23;;;5.63;;
3004;SDS011;1512;51.486;6.610;2023-07-30T05:28:34;12.37;;;5.00;;
3004;SDS011;1512;51.486;6.610;2023-07-30T05:32:43;19.63;;;6.10;;
3004;SDS011;1512;51.486;6.610;2023-07-30T05:36:51;7.40;;;4.60;;
3004;SDS011;1512;51.486;6.610;2023-07-30T05:41:00;7.30;;;5.07;;
3004;SDS011;1512;51.486;6.610;2023-07-30T05:45:09;6.90;;;4.40;;
3004;SDS011;1512;51.486;6.610;2023-07-30T05:49:18;15.90;;;4.40;;
3004;SDS011;1512;51.486;6.610;2023-07-30T05:53:27;7.27;;;4.37;;
3004;SDS011;1512;51.486;6.610;2023-07-30T05:57:36;7.80;;;3.70;;
3004;SDS011;1512;51.486;6.610;2023-07-30T06:01:46;6.53;;;4.13;;
3004;SDS011;1512;51.486;6.610;2023-07-30T06:05:55;7.17;;;4.33;;
3004;SDS011;1512;51.486;6.610;2023-07-30T06:14:31;6.73;;;4.20;;
3004;SDS011;1512;51.486;6.610;2023-07-30T06:18:40;5.30;;;4.77;;
3004;SDS011;1512;51.486;6.610;2023-07-30T06:22:49;5.40;;;3.97;;
3004;SDS011;1512;51.486;6.610;2023-07-30T06:26:57;8.80;;;3.33;;
3004;SDS011;1512;51.486;6.610;2023-07-30T06:31:06;6.50;;;3.67;;
3004;SDS011;1512;51.486;6.610;2023-07-30T06:35:15;6.23;;;4.60;;
3004;SDS011;1512;51.486;6.610;2023-07-30T06:39:23;9.37;;;4.17;;
3004;SDS011;1512;51.486;6.610;2023-07-30T06:43:32;4.92;;;4.05;;
3004;SDS011;1512;51.486;6.610;2023-07-30T06:47:41;9.17;;;3.67;;
3004;SDS011;1512;51.486;6.610;2023-07-30T06:51:49;6.27;;;2.80;;
3004;SDS011;1512;51.486;6.610;2023-07-30T06:55:58;5.30;;;3.10;;
3004;SDS011;1512;51.486;6.610;2023-07-30T07:00:07;8.40;;;3.70;;
3004;SDS011;1512;51.486;6.610;2023-07-30T07:04:16;10.93;;;2.80;;
3004;SDS011;1512;51.486;6.610;2023-07-30T07:08:24;6.63;;;4.03;;
3004;SDS011;1512;51.486;6.610;2023-07-30T07:12:34;10.47;;;3.63;;
3004;SDS011;1512;51.486;6.610;2023-07-30T07:16:42;5.63;;;3.07;;
3004;SDS011;1512;51.486;6.610;2023-07-30T07:20:51;5.43;;;4.10;;
3004;SDS011;1512;51.486;6.610;2023-07-30T07:25:00;4.40;;;3.30;;
3004;SDS011;1512;51.486;6.610;2023-07-30T07:29:09;8.08;;;4.00;;
3004;SDS011;1512;51.486;6.610;2023-07-30T07:33:18;5.70;;;3.37;;
3004;SDS011;1512;51.486;6.610;2023-07-30T07:37:26;4.90;;;3.43;;
3004;SDS011;1512;51.486;6.610;2023-07-30T07:45:56;6.57;;;3.97;;
3004;SDS011;1512;51.486;6.610;2023-07-30T07:50:05;4.20;;;3.77;;
3004;SDS011;1512;51.486;6.610;2023-07-30T07:54:14;5.27;;;3.50;;
3004;SDS011;1512;51.486;6.610;2023-07-30T07:58:23;13.53;;;4.00;;
3004;SDS011;1512;51.486;6.610;2023-07-30T08:02:31;6.10;;;4.20;;
3004;SDS011;1512;51.486;6.610;2023-07-30T08:06:40;6.40;;;3.50;;
3004;SDS011;1512;51.486;6.610;2023-07-30T08:10:49;4.83;;;3.73;;
3004;SDS011;1512;51.486;6.610;2023-07-30T08:14:58;9.57;;;3.93;;
3004;SDS011;1512;51.486;6.610;2023-07-30T08:19:07;7.17;;;3.73;;
3004;SDS011;1512;51.486;6.610;2023-07-30T08:23:15;6.47;;;3.47;;
3004;SDS011;1512;51.486;6.610;2023-07-30T08:27:24;5.80;;;4.07;;
3004;SDS011;1512;51.486;6.610;2023-07-30T08:31:33;8.00;;;4.60;;
3004;SDS011;1512;51.486;6.610;2023-07-30T08:35:42;6.53;;;4.23;;
3004;SDS011;1512;51.486;6.610;2023-07-30T08:39:51;15.47;;;4.30;;
3004;SDS011;1512;51.486;6.610;2023-07-30T08:44:00;10.23;;;4.83;;
3004;SDS011;1512;51.486;6.610;2023-07-30T08:48:09;7.57;;;3.43;;
3004;SDS011;1512;51.486;6.610;2023-07-30T08:52:17;7.17;;;3.93;;
3004;SDS011;1512;51.486;6.610;2023-07-30T08:56:29;10.10;;;3.97;;
3004;SDS011;1512;51.486;6.610;2023-07-30T09:00:38;10.30;;;3.70;;
3004;SDS011;1512;51.486;6.610;2023-07-30T09:04:49;6.20;;;3.90;;
3004;SDS011;1512;51.486;6.610;2023-07-30T09:09:01;6.40;;;3.37;;
3004;SDS011;1512;51.486;6.610;2023-07-30T09:13:10;8.80;;;4.10;;
3004;SDS011;1512;51.486;6.610;2023-07-30T09:17:19;8.08;;;4.60;;
3004;SDS011;1512;51.486;6.610;2023-07-30T09:21:33;6.13;;;4.50;;
3004;SDS011;1512;51.486;6.610;2023-07-30T09:25:43;7.40;;;3.30;;
3004;SDS011;1512;51.486;6.610;2023-07-30T09:29:56;6.53;;;3.47;;
3004;SDS011;1512;51.486;6.610;2023-07-30T09:34:06;8.00;;;3.77;;
3004;SDS011;1512;51.486;6.610;2023-07-30T09:38:16;6.40;;;3.37;;
3004;SDS011;1512;51.486;6.610;2023-07-30T09:42:27;6.30;;;4.10;;
3004;SDS011;1512;51.486;6.610;2023-07-30T09:46:42;4.00;;;3.33;;
3004;SDS011;1512;51.486;6.610;2023-07-30T09:50:52;7.00;;;3.50;;
3004;SDS011;1512;51.486;6.610;2023-07-30T09:55:01;3.90;;;3.50;;
3004;SDS011;1512;51.486;6.610;2023-07-30T09:59:12;7.80;;;3.00;;
3004;SDS011;1512;51.486;6.610;2023-07-30T10:03:20;8.03;;;3.50;;
3004;SDS011;1512;51.486;6.610;2023-07-30T10:07:29;7.63;;;3.53;;
3004;SDS011;1512;51.486;6.610;2023-07-30T10:11:38;6.50;;;3.73;;
3004;SDS011;1512;51.486;6.610;2023-07-30T10:15:49;7.07;;;3.13;;
3004;SDS011;1512;51.486;6.610;2023-07-30T10:19:57;5.00;;;3.30;;
3004;SDS011;1512;51.486;6.610;2023-07-30T10:24:12;6.47;;;2.90;;
3004;SDS011;1512;51.486;6.610;2023-07-30T10:32:39;5.23;;;2.70;;
3004;SDS011;1512;51.486;6.610;2023-07-30T10:36:50;3.93;;;2.80;;
3004;SDS011;1512;51.486;6.610;2023-07-30T10:40:59;8.50;;;2.73;;
3004;SDS011;1512;51.486;6.610;2023-07-30T10:45:10;4.67;;;3.47;;
3004;SDS011;1512;51.486;6.610;2023-07-30T10:49:18;5.70;;;3.20;;
3004;SDS011;1512;51.486;6.610;2023-07-30T10:53:27;9.80;;;3.20;;
3004;SDS011;1512;51.486;6.610;2023-07-30T10:57:36;3.53;;;3.20;;
3004;SDS011;1512;51.486;6.610;2023-07-30T11:01:47;9.10;;;2.97;;
3004;SDS011;1512;51.486;6.610;2023-07-30T11:05:55;6.10;;;2.47;;
3004;SDS011;1512;51.486;6.610;2023-07-30T11:10:04;7.43;;;2.70;;
3004;SDS011;1512;51.486;6.610;2023-07-30T11:14:16;4.00;;;2.67;;
3004;SDS011;1512;51.486;6.610;2023-07-30T11:18:30;7.83;;;3.80;;
3004;SDS011;1512;51.486;6.610;2023-07-30T11:22:42;3.70;;;2.77;;
3004;SDS011;1512;51.486;6.610;2023-07-30T11:26:57;3.70;;;3.40;;
3004;SDS011;1512;51.486;6.610;2023-07-30T11:31:10;5.50;;;2.57;;
3004;SDS011;1512;51.486;6.610;2023-07-30T11:35:21;6.90;;;3.60;;
3004;SDS011;1512;51.486;6.610;2023-07-30T11:39:30;2.50;;;2.30;;
3004;SDS011;1512;51.486;6.610;2023-07-30T11:43:40;9.50;;;3.07;;
3004;SDS011;1512;51.486;6.610;2023-07-30T11:47:51;4.57;;;3.27;;
3004;SDS011;1512;51.486;6.610;2023-07-30T11:52:08;8.80;;;3.30;;
3004;SDS011;1512;51.486;6.610;2023-07-30T11:56:18;6.93;;;3.43;;
3004;SDS011;1512;51.486;6.610;2023-07-30T12:00:29;6.20;;;2.90;;
3004;SDS011;1512;51.486;6.610;2023-07-30T12:04:45;8.13;;;2.67;;
3004;SDS011;1512;51.486;6.610;2023-07-30T12:08:55;7.07;;;3.30;;
3004;SDS011;1512;51.486;6.610;2023-07-30T12:13:10;6.70;;;2.60;;
3004;SDS011;1512;51.486;6.610;2023-07-30T12:17:16;3.40;;;3.10;;
3004;SDS011;1512;51.486;6.610;2023-07-30T12:21:25;4.73;;;2.30;;
3004;SDS011;1512;51.486;6.610;2023-07-30T12:25:33;3.83;;;2.40;;
3004;SDS011;1512;51.486;6.610;2023-07-30T12:29:42;9.20;;;3.00;;
3004;SDS011;1512;51.486;6.610;2023-07-30T12:33:51;3.10;;;1.90;;
3004;SDS011;1512;51.486;6.610;2023-07-30T12:38:01;6.03;;;2.53;;
3004;SDS011;1512;51.486;6.610;2023-07-30T12:42:09;3.47;;;2.30;;
3004;SDS011;1512;51.486;6.610;2023-07-30T12:46:18;2.00;;;1.80;;
3004;SDS011;1512;51.486;6.610;2023-07-30T12:50:27;2.43;;;1.83;;
3004;SDS011;1512;51.486;6.610;2023-07-30T12:54:36;2.77;;;2.20;;
3004;SDS011;1512;51.486;6.610;2023-07-30T12:58:44;2.30;;;2.10;;
3004;SDS011;1512;51.486;6.610;2023-07-30T13:02:53;3.70;;;2.33;;
3004;SDS011;1512;51.486;6.610;2023-07-30T13:07:04;2.43;;;2.23;;
3004;SDS011;1512;51.486;6.610;2023-07-30T13:11:12;13.50;;;2.70;;
3004;SDS011;1512;51.486;6.610;2023-07-30T13:15:21;7.97;;;2.60;;
3004;SDS011;1512;51.486;6.610;2023-07-30T13:19:29;2.70;;;2.50;;
3004;SDS011;1512;51.486;6.610;2023-07-30T13:23:39;3.30;;;2.53;;
3004;SDS011;1512;51.486;6.610;2023-07-30T13:27:48;5.00;;;2.53;;
3004;SDS011;1512;51.486;6.610;2023-07-30T13:31:56;2.83;;;2.50;;
3004;SDS011;1512;51.486;6.610;2023-07-30T13:36:05;2.60;;;2.40;;
3004;SDS011;1512;51.486;6.610;2023-07-30T13:40:15;6.13;;;3.20;;
3004;SDS011;1512;51.486;6.610;2023-07-30T13:44:24;4.87;;;3.00;;
3004;SDS011;1512;51.486;6.610;2023-07-30T13:48:32;3.40;;;2.67;;
3004;SDS011;1512;51.486;6.610;2023-07-30T13:52:41;2.83;;;2.57;;
3004;SDS011;1512;51.486;6.610;2023-07-30T13:56:50;3.33;;;2.60;;
3004;SDS011;1512;51.486;6.610;2023-07-30T14:00:59;6.10;;;3.07;;
3004;SDS011;1512;51.486;6.610;2023-07-30T14:05:08;5.83;;;3.13;;
3004;SDS011;1512;51.486;6.610;2023-07-30T14:09:17;9.10;;;3.50;;
3004;SDS011;1512;51.486;6.610;2023-07-30T14:13:26;4.67;;;3.63;;
3004;SDS011;1512;51.486;6.610;2023-07-30T14:17:35;4.47;;;2.80;;
3004;SDS011;1512;51.486;6.610;2023-07-30T14:21:44;5.40;;;2.87;;
3004;SDS011;1512;51.486;6.610;2023-07-30T14:25:52;3.20;;;2.90;;
3004;SDS011;1512;51.486;6.610;2023-07-30T14:34:29;4.73;;;3.87;;
3004;SDS011;1512;51.486;6.610;2023-07-30T14:38:38;8.23;;;4.57;;
3004;SDS011;1512;51.486;6.610;2023-07-30T14:42:46;4.90;;;4.50;;
3004;SDS011;1512;51.486;6.610;2023-07-30T14:46:55;6.70;;;2.83;;
3004;SDS011;1512;51.486;6.610;2023-07-30T14:51:05;3.70;;;3.30;;
3004;SDS011;1512;51.486;6.610;2023-07-30T14:55:14;4.47;;;2.80;;
3004;SDS011;1512;51.486;6.610;2023-07-30T14:59:22;5.03;;;2.67;;
3004;SDS011;1512;51.486;6.610;2023-07-30T15:03:32;3.07;;;2.53;;
3004;SDS011;1512;51.486;6.610;2023-07-30T15:07:40;4.23;;;2.43;;
3004;SDS011;1512;51.486;6.610;2023-07-30T15:11:49;7.77;;;2.70;;
3004;SDS011;1512;51.486;6.610;2023-07-30T15:15:58;4.90;;;3.40;;
3004;SDS011;1512;51.486;6.610;2023-07-30T15:20:06;4.73;;;4.30;;
3004;SDS011;1512;51.486;6.610;2023-07-30T15:24:15;2.63;;;2.23;;
3004;SDS011;1512;51.486;6.610;2023-07-30T15:28:24;5.10;;;2.90;;
3004;SDS011;1512;51.486;6.610;2023-07-30T15:32:33;4.13;;;2.50;;
3004;SDS011;1512;51.486;6.610;2023-07-30T15:36:50;10.30;;;2.80;;
3004;SDS011;1512;51.486;6.610;2023-07-30T15:40:59;7.03;;;4.23;;
3004;SDS011;1512;51.486;6.610;2023-07-30T15:45:08;2.80;;;2.37;;
3004;SDS011;1512;51.486;6.610;2023-07-30T15:49:17;3.73;;;2.20;;
3004;SDS011;1512;51.486;6.610;2023-07-30T15:53:25;3.37;;;2.53;;
3004;SDS011;1512;51.486;6.610;2023-07-30T15:57:34;6.37;;;2.90;;
3004;SDS011;1512;51.486;6.610;2023-07-30T16:01:43;5.15;;;2.67;;
3004;SDS011;1512;51.486;6.610;2023-07-30T16:05:52;5.20;;;2.70;;
3004;SDS011;1512;51.486;6.610;2023-07-30T16:10:01;4.00;;;2.80;;
3004;SDS011;1512;51.486;6.610;2023-07-30T16:14:10;4.07;;;2.30;;
3004;SDS011;1512;51.486;6.610;2023-07-30T16:18:19;4.50;;;2.50;;
3004;SDS011;1512;51.486;6.610;2023-07-30T16:22:27;3.70;;;3.40;;
3004;SDS011;1512;51.486;6.610;2023-07-30T16:26:36;4.07;;;2.70;;
3004;SDS011;1512;51.486;6.610;2023-07-30T16:30:45;3.57;;;2.20;;
3004;SDS011;1512;51.486;6.610;2023-07-30T16:34:54;2.83;;;2.30;;
3004;SDS011;1512;51.486;6.610;2023-07-30T16:39:02;6.40;;;2.40;;
3004;SDS011;1512;51.486;6.610;2023-07-30T16:43:11;3.10;;;2.40;;
3004;SDS011;1512;51.486;6.610;2023-07-30T16:47:21;3.87;;;2.57;;
3004;SDS011;1512;51.486;6.610;2023-07-30T16:51:29;4.73;;;2.50;;
3004;SDS011;1512;51.486;6.610;2023-07-30T16:55:38;3.10;;;2.47;;
3004;SDS011;1512;51.486;6.610;2023-07-30T16:59:47;5.63;;;2.80;;
3004;SDS011;1512;51.486;6.610;2023-07-30T17:03:55;6.73;;;3.63;;
3004;SDS011;1512;51.486;6.610;2023-07-30T17:08:04;3.37;;;2.53;;
3004;SDS011;1512;51.486;6.610;2023-07-30T17:12:14;5.13;;;2.30;;
3004;SDS011;1512;51.486;6.610;2023-07-30T17:16:23;4.37;;;2.77;;
3004;SDS011;1512;51.486;6.610;2023-07-30T17:20:32;3.00;;;2.40;;
3004;SDS011;1512;51.486;6.610;2023-07-30T17:24:40;3.00;;;2.50;;
3004;SDS011;1512;51.486;6.610;2023-07-30T17:28:49;5.73;;;2.50;;
3004;SDS011;1512;51.486;6.610;2023-07-30T17:32:58;5.00;;;2.30;;
3004;SDS011;1512;51.486;6.610;2023-07-30T17:37:06;4.50;;;2.50;;
3004;SDS011;1512;51.486;6.610;2023-07-30T17:41:15;7.20;;;3.47;;
3004;SDS011;1512;51.486;6.610;2023-07-30T17:45:24;4.20;;;3.03;;
3004;SDS011;1512;51.486;6.610;2023-07-30T17:49:32;3.43;;;2.93;;
3004;SDS011;1512;51.486;6.610;2023-07-30T17:53:41;3.10;;;2.80;;
3004;SDS011;1512;51.486;6.610;2023-07-30T17:57:50;6.90;;;2.60;;
3004;SDS011;1512;51.486;6.610;2023-07-30T18:01:59;5.87;;;2.93;;
3004;SDS011;1512;51.486;6.610;2023-07-30T18:06:08;7.90;;;2.80;;
3004;SDS011;1512;51.486;6.610;2023-07-30T18:10:17;6.63;;;3.20;;
3004;SDS011;1512;51.486;6.610;2023-07-30T18:14:26;6.53;;;3.13;;
3004;SDS011;1512;51.486;6.610;2023-07-30T18:18:36;7.50;;;4.47;;
3004;SDS011;1512;51.486;6.610;2023-07-30T18:22:44;4.80;;;4.00;;
3004;SDS011;1512;51.486;6.610;2023-07-30T18:26:53;4.80;;;3.17;;
3004;SDS011;1512;51.486;6.610;2023-07-30T18:31:02;6.30;;;3.40;;
3004;SDS011;1512;51.486;6.610;2023-07-30T18:35:11;5.03;;;3.50;;
3004;SDS011;1512;51.486;6.610;2023-07-30T18:39:20;5.00;;;3.30;;
3004;SDS011;1512;51.486;6.610;2023-07-30T18:43:28;3.90;;;2.80;;
3004;SDS011;1512;51.486;6.610;2023-07-30T18:47:37;3.83;;;3.00;;
3004;SDS011;1512;51.486;6.610;2023-07-30T18:51:46;3.97;;;3.20;;
3004;SDS011;1512;51.486;6.610;2023-07-30T18:55:54;10.50;;;3.67;;
3004;SDS011;1512;51.486;6.610;2023-07-30T19:00:03;5.20;;;2.90;;
3004;SDS011;1512;51.486;6.610;2023-07-30T19:04:12;5.43;;;3.10;;
3004;SDS011;1512;51.486;6.610;2023-07-30T19:08:21;4.90;;;3.50;;
3004;SDS011;1512;51.486;6.610;2023-07-30T19:12:30;4.33;;;3.37;;
3004;SDS011;1512;51.486;6.610;2023-07-30T19:16:38;3.73;;;3.33;;
3004;SDS011;1512;51.486;6.610;2023-07-30T19:20:47;5.90;;;3.70;;
3004;SDS011;1512;51.486;6.610;2023-07-30T19:24:56;6.20;;;3.83;;
3004;SDS011;1512;51.486;6.610;2023-07-30T19:29:05;5.70;;;3.63;;
3004;SDS011;1512;51.486;6.610;2023-07-30T19:33:13;3.37;;;3.07;;
3004;SDS011;1512;51.486;6.610;2023-07-30T19:37:23;3.90;;;3.50;;
3004;SDS011;1512;51.486;6.610;2023-07-30T19:41:32;4.70;;;3.40;;
3004;SDS011;1512;51.486;6.610;2023-07-30T19:45:42;3.67;;;2.70;;
3004;SDS011;1512;51.486;6.610;2023-07-30T19:49:51;5.47;;;2.83;;
3004;SDS011;1512;51.486;6.610;2023-07-30T19:54:00;4.90;;;3.30;;
3004;SDS011;1512;51.486;6.610;2023-07-30T19:58:26;3.77;;;2.83;;
3004;SDS011;1512;51.486;6.610;2023-07-30T20:02:38;3.30;;;2.97;;
3004;SDS011;1512;51.486;6.610;2023-07-30T20:06:46;3.77;;;2.50;;
3004;SDS011;1512;51.486;6.610;2023-07-30T20:10:57;3.20;;;2.40;;
3004;SDS011;1512;51.486;6.610;2023-07-30T20:15:06;2.30;;;2.10;;
3004;SDS011;1512;51.486;6.610;2023-07-30T20:19:15;2.47;;;2.20;;
3004;SDS011;1512;51.486;6.610;2023-07-30T20:23:24;3.42;;;2.20;;
3004;SDS011;1512;51.486;6.610;2023-07-30T20:27:32;4.87;;;2.70;;
3004;SDS011;1512;51.486;6.610;2023-07-30T20:31:41;3.27;;;2.40;;
3004;SDS011;1512;51.486;6.610;2023-07-30T20:35:50;6.17;;;2.93;;
3004;SDS011;1512;51.486;6.610;2023-07-30T20:39:59;3.40;;;2.70;;
3004;SDS011;1512;51.486;6.610;2023-07-30T20:44:07;3.03;;;2.53;;
3004;SDS011;1512;51.486;6.610;2023-07-30T20:48:16;3.30;;;2.87;;
3004;SDS011;1512;51.486;6.610;2023-07-30T20:52:25;3.50;;;2.57;;
3004;SDS011;1512;51.486;6.610;2023-07-30T20:56:33;6.80;;;2.90;;
3004;SDS011;1512;51.486;6.610;2023-07-30T21:00:42;4.97;;;2.67;;
3004;SDS011;1512;51.486;6.610;2023-07-30T21:04:51;3.70;;;2.90;;
3004;SDS011;1512;51.486;6.610;2023-07-30T21:09:00;3.20;;;2.90;;
3004;SDS011;1512;51.486;6.610;2023-07-30T21:13:09;11.83;;;3.97;;
3004;SDS011;1512;51.486;6.610;2023-07-30T21:17:18;4.00;;;3.40;;
3004;SDS011;1512;51.486;6.610;2023-07-30T21:21:27;5.57;;;3.83;;
3004;SDS011;1512;51.486;6.610;2023-07-30T21:25:36;4.13;;;3.73;;
3004;SDS011;1512;51.486;6.610;2023-07-30T21:29:45;4.47;;;4.03;;
3004;SDS011;1512;51.486;6.610;2023-07-30T21:33:53;7.37;;;3.40;;
3004;SDS011;1512;51.486;6.610;2023-07-30T21:38:02;6.60;;;4.70;;
3004;SDS011;1512;51.486;6.610;2023-07-30T21:42:11;6.40;;;3.77;;
3004;SDS011;1512;51.486;6.610;2023-07-30T21:46:19;5.67;;;4.40;;
3004;SDS011;1512;51.486;6.610;2023-07-30T21:50:28;5.47;;;4.17;;
3004;SDS011;1512;51.486;6.610;2023-07-30T21:58:57;5.03;;;4.30;;
3004;SDS011;1512;51.486;6.610;2023-07-30T22:03:06;6.20;;;4.53;;
3004;SDS011;1512;51.486;6.610;2023-07-30T22:07:15;5.73;;;3.63;;
3004;SDS011;1512;51.486;6.610;2023-07-30T22:11:23;7.83;;;4.80;;
3004;SDS011;1512;51.486;6.610;2023-07-30T22:15:34;5.73;;;3.97;;
3004;SDS011;1512;51.486;6.610;2023-07-30T22:19:42;6.50;;;3.73;;
3004;SDS011;1512;51.486;6.610;2023-07-30T22:23:51;13.47;;;2.80;;
3004;SDS011;1512;51.486;6.610;2023-07-30T22:27:59;2.37;;;2.10;;
3004;SDS011;1512;51.486;6.610;2023-07-30T22:32:10;3.23;;;2.17;;
3004;SDS011;1512;51.486;6.610;2023-07-30T22:36:19;2.53;;;2.30;;
3004;SDS011;1512;51.486;6.610;2023-07-30T22:40:27;2.83;;;2.63;;
3004;SDS011;1512;51.486;6.610;2023-07-30T22:44:36;2.33;;;2.13;;
3004;SDS011;1512;51.486;6.610;2023-07-30T22:48:45;3.33;;;3.03;;
3004;SDS011;1512;51.486;6.610;2023-07-30T22:52:56;2.47;;;1.97;;
3004;SDS011;1512;51.486;6.610;2023-07-30T22:57:05;2.57;;;2.13;;
3004;SDS011;1512;51.486;6.610;2023-07-30T23:01:14;3.25;;;2.17;;
3004;SDS011;1512;51.486;6.610;2023-07-30T23:05:23;2.63;;;2.30;;
3004;SDS011;1512;51.486;6.610;2023-07-30T23:09:32;2.47;;;2.27;;
3004;SDS011;1512;51.486;6.610;2023-07-30T23:13:40;3.47;;;2.07;;
3004;SDS011;1512;51.486;6.610;2023-07-30T23:17:49;2.27;;;2.07;;
3004;SDS011;1512;51.486;6.610;2023-07-30T23:21:58;2.67;;;2.30;;
3004;SDS011;1512;51.486;6.610;2023-07-30T23:26:06;3.10;;;2.03;;
3004;SDS011;1512;51.486;6.610;2023-07-30T23:30:15;2.83;;;2.37;;
3004;SDS011;1512;51.486;6.610;2023-07-30T23:34:24;3.57;;;2.70;;
3004;SDS011;1512;51.486;6.610;2023-07-30T23:38:32;9.93;;;3.40;;
3004;SDS011;1512;51.486;6.610;2023-07-30T23:42:41;6.97;;;3.60;;
3004;SDS011;1512;51.486;6.610;2023-07-30T23:46:49;7.27;;;4.53;;
3004;SDS011;1512;51.486;6.610;2023-07-30T23:50:58;5.25;;;4.42;;
3004;SDS011;1512;51.486;6.610;2023-07-30T23:59:36;5.93;;;4.20;;
